KLCK/LCK METAR and TAF weather

Enter ICAO airport designator
Station Type Date Time Source
KLCK METAR 2019/02/20 23:55 UTC NOAA

KLCK 202355Z AUTO 17007KT 3SM +DZ SCT004 OVC012 07/07 A2980 RMK AO2 T00710071


Station Type Date Time Source
KLCK Decoded METAR 2019/02/20 23:55 UTC NOAA

Rickenbacker Air National Guard Base, OH, United States (KLCK) 39-49N 082-56W
Feb 20, 2019 - 06:55 PM EST / 2019.02.20 2355 UTC
Wind: from the S (170 degrees) at 8 MPH (7 KT):0
Visibility: 3 mile(s):0
Sky conditions: overcast
Weather: heavy drizzle
Temperature: 44.8 F (7.1 C)
Dew Point: 44.8 F (7.1 C)
Relative Humidity: 100%
Pressure (altimeter): 29.8 in. Hg (1009 hPa)
ob: KLCK 202355Z AUTO 17007KT 3SM +DZ SCT004 OVC012 07/07 A2980 RMK AO2 T00710071
cycle: 0

Station Type Date Time Source
KLCK TAF 2019/02/20 20:21 UTC NOAA

TAF KLCK 202016Z 2020/2118 14008KT P6SM VCSH OVC005 WS020/21040KT
FM202100 15010KT 4SM -SHRA BR OVC007 WS020/21040KT
FM210300 25012G18KT 2SM -DZ BR OVC004
TEMPO 2103/2106 1/2SM FG VV003
FM211000 26012KT 5SM BR OVC007
FM211500 26009KT P6SM BKN009
FM211700 26009KT P6SM BKN022


Example: see airport list